sensor_id;sensor_type;location;lat;lon;timestamp;P1;durP1;ratioP1;P2;durP2;ratioP2
53062;SDS011;40529;52.172;10.548;2022-07-29T00:01:48;7.03;;;1.55;;
53062;SDS011;40529;52.172;10.548;2022-07-29T00:04:14;7.03;;;1.13;;
53062;SDS011;40529;52.172;10.548;2022-07-29T00:06:40;3.90;;;1.17;;
53062;SDS011;40529;52.172;10.548;2022-07-29T00:09:06;3.60;;;1.33;;
53062;SDS011;40529;52.172;10.548;2022-07-29T00:11:33;3.05;;;1.25;;
53062;SDS011;40529;52.172;10.548;2022-07-29T00:13:59;3.38;;;1.23;;
53062;SDS011;40529;52.172;10.548;2022-07-29T00:16:25;4.00;;;1.00;;
53062;SDS011;40529;52.172;10.548;2022-07-29T00:18:51;4.78;;;1.30;;
53062;SDS011;40529;52.172;10.548;2022-07-29T00:21:17;4.40;;;1.10;;
53062;SDS011;40529;52.172;10.548;2022-07-29T00:23:42;3.97;;;1.20;;
53062;SDS011;40529;52.172;10.548;2022-07-29T00:26:09;2.78;;;1.10;;
53062;SDS011;40529;52.172;10.548;2022-07-29T00:28:34;3.58;;;1.70;;
53062;SDS011;40529;52.172;10.548;2022-07-29T00:31:01;2.22;;;1.00;;
53062;SDS011;40529;52.172;10.548;2022-07-29T00:33:27;3.60;;;1.20;;
53062;SDS011;40529;52.172;10.548;2022-07-29T00:35:53;5.90;;;1.17;;
53062;SDS011;40529;52.172;10.548;2022-07-29T00:38:20;5.15;;;1.50;;
53062;SDS011;40529;52.172;10.548;2022-07-29T00:40:46;7.70;;;1.42;;
53062;SDS011;40529;52.172;10.548;2022-07-29T00:43:13;2.30;;;1.05;;
53062;SDS011;40529;52.172;10.548;2022-07-29T00:45:39;4.93;;;1.17;;
53062;SDS011;40529;52.172;10.548;2022-07-29T00:48:05;5.55;;;1.70;;
53062;SDS011;40529;52.172;10.548;2022-07-29T00:50:33;4.28;;;1.10;;
53062;SDS011;40529;52.172;10.548;2022-07-29T00:52:59;11.88;;;1.20;;
53062;SDS011;40529;52.172;10.548;2022-07-29T00:55:26;5.32;;;1.15;;
53062;SDS011;40529;52.172;10.548;2022-07-29T00:57:52;7.57;;;1.20;;
53062;SDS011;40529;52.172;10.548;2022-07-29T01:00:22;3.15;;;1.02;;
53062;SDS011;40529;52.172;10.548;2022-07-29T01:02:49;3.60;;;1.40;;
53062;SDS011;40529;52.172;10.548;2022-07-29T01:05:19;4.82;;;1.30;;
53062;SDS011;40529;52.172;10.548;2022-07-29T01:07:45;4.47;;;1.15;;
53062;SDS011;40529;52.172;10.548;2022-07-29T01:10:12;5.35;;;1.30;;
53062;SDS011;40529;52.172;10.548;2022-07-29T01:12:39;3.80;;;1.33;;
53062;SDS011;40529;52.172;10.548;2022-07-29T01:15:06;4.78;;;1.38;;
53062;SDS011;40529;52.172;10.548;2022-07-29T01:17:37;6.55;;;1.13;;
53062;SDS011;40529;52.172;10.548;2022-07-29T01:29:54;2.35;;;0.82;;
53062;SDS011;40529;52.172;10.548;2022-07-29T01:32:22;2.93;;;1.20;;
53062;SDS011;40529;52.172;10.548;2022-07-29T01:34:50;2.83;;;1.20;;
53062;SDS011;40529;52.172;10.548;2022-07-29T01:37:20;3.30;;;1.25;;
53062;SDS011;40529;52.172;10.548;2022-07-29T01:39:48;4.40;;;0.90;;
53062;SDS011;40529;52.172;10.548;2022-07-29T01:42:20;4.38;;;1.27;;
53062;SDS011;40529;52.172;10.548;2022-07-29T01:44:57;3.17;;;1.23;;
53062;SDS011;40529;52.172;10.548;2022-07-29T01:47:25;3.30;;;1.15;;
53062;SDS011;40529;52.172;10.548;2022-07-29T01:49:53;2.67;;;0.75;;
53062;SDS011;40529;52.172;10.548;2022-07-29T01:52:25;2.38;;;1.30;;
53062;SDS011;40529;52.172;10.548;2022-07-29T01:54:53;2.42;;;1.20;;
53062;SDS011;40529;52.172;10.548;2022-07-29T01:57:21;1.75;;;1.20;;
53062;SDS011;40529;52.172;10.548;2022-07-29T01:59:50;6.60;;;1.27;;
53062;SDS011;40529;52.172;10.548;2022-07-29T02:02:17;3.05;;;1.30;;
53062;SDS011;40529;52.172;10.548;2022-07-29T02:04:44;2.13;;;1.08;;
53062;SDS011;40529;52.172;10.548;2022-07-29T02:07:13;3.55;;;1.10;;
53062;SDS011;40529;52.172;10.548;2022-07-29T02:09:39;3.30;;;0.90;;
53062;SDS011;40529;52.172;10.548;2022-07-29T02:12:07;3.25;;;1.20;;
53062;SDS011;40529;52.172;10.548;2022-07-29T02:14:36;2.42;;;0.80;;
53062;SDS011;40529;52.172;10.548;2022-07-29T02:17:02;2.40;;;0.98;;
53062;SDS011;40529;52.172;10.548;2022-07-29T02:19:29;2.53;;;1.17;;
53062;SDS011;40529;52.172;10.548;2022-07-29T02:21:56;2.83;;;0.95;;
53062;SDS011;40529;52.172;10.548;2022-07-29T02:24:23;4.15;;;1.08;;
53062;SDS011;40529;52.172;10.548;2022-07-29T02:26:51;4.70;;;1.20;;
53062;SDS011;40529;52.172;10.548;2022-07-29T02:29:18;2.97;;;1.00;;
53062;SDS011;40529;52.172;10.548;2022-07-29T02:31:46;2.53;;;1.20;;
53062;SDS011;40529;52.172;10.548;2022-07-29T02:34:13;3.38;;;1.17;;
53062;SDS011;40529;52.172;10.548;2022-07-29T02:36:40;3.00;;;1.10;;
53062;SDS011;40529;52.172;10.548;2022-07-29T02:39:07;3.05;;;1.10;;
53062;SDS011;40529;52.172;10.548;2022-07-29T02:41:35;3.08;;;1.00;;
53062;SDS011;40529;52.172;10.548;2022-07-29T02:44:10;3.55;;;0.82;;
53062;SDS011;40529;52.172;10.548;2022-07-29T02:46:37;2.92;;;0.95;;
53062;SDS011;40529;52.172;10.548;2022-07-29T02:49:12;3.15;;;1.02;;
53062;SDS011;40529;52.172;10.548;2022-07-29T02:51:46;2.03;;;1.10;;
53062;SDS011;40529;52.172;10.548;2022-07-29T02:54:37;2.00;;;1.10;;
53062;SDS011;40529;52.172;10.548;2022-07-29T02:57:06;5.07;;;1.10;;
53062;SDS011;40529;52.172;10.548;2022-07-29T02:59:34;4.20;;;1.00;;
53062;SDS011;40529;52.172;10.548;2022-07-29T03:02:02;3.13;;;1.42;;
53062;SDS011;40529;52.172;10.548;2022-07-29T03:04:28;3.63;;;1.25;;
53062;SDS011;40529;52.172;10.548;2022-07-29T03:06:57;5.20;;;1.55;;
53062;SDS011;40529;52.172;10.548;2022-07-29T03:09:24;1.50;;;0.82;;
53062;SDS011;40529;52.172;10.548;2022-07-29T03:11:50;3.45;;;1.10;;
53062;SDS011;40529;52.172;10.548;2022-07-29T03:14:19;3.38;;;1.20;;
53062;SDS011;40529;52.172;10.548;2022-07-29T03:16:45;4.05;;;1.40;;
53062;SDS011;40529;52.172;10.548;2022-07-29T03:19:12;3.17;;;1.50;;
53062;SDS011;40529;52.172;10.548;2022-07-29T03:21:38;1.50;;;1.08;;
53062;SDS011;40529;52.172;10.548;2022-07-29T03:24:04;2.17;;;1.10;;
53062;SDS011;40529;52.172;10.548;2022-07-29T03:26:30;5.07;;;1.23;;
53062;SDS011;40529;52.172;10.548;2022-07-29T03:28:56;2.90;;;1.17;;
53062;SDS011;40529;52.172;10.548;2022-07-29T03:31:22;3.75;;;1.20;;
53062;SDS011;40529;52.172;10.548;2022-07-29T03:33:48;3.30;;;1.10;;
53062;SDS011;40529;52.172;10.548;2022-07-29T03:36:14;3.17;;;1.15;;
53062;SDS011;40529;52.172;10.548;2022-07-29T03:38:40;4.28;;;1.27;;
53062;SDS011;40529;52.172;10.548;2022-07-29T03:41:09;1.92;;;1.08;;
53062;SDS011;40529;52.172;10.548;2022-07-29T03:43:37;3.58;;;1.17;;
53062;SDS011;40529;52.172;10.548;2022-07-29T03:46:04;3.00;;;1.20;;
53062;SDS011;40529;52.172;10.548;2022-07-29T03:48:32;8.43;;;1.38;;
53062;SDS011;40529;52.172;10.548;2022-07-29T03:51:00;3.72;;;1.30;;
53062;SDS011;40529;52.172;10.548;2022-07-29T03:53:26;2.17;;;1.10;;
53062;SDS011;40529;52.172;10.548;2022-07-29T03:55:53;2.72;;;1.52;;
53062;SDS011;40529;52.172;10.548;2022-07-29T03:58:20;2.88;;;1.30;;
53062;SDS011;40529;52.172;10.548;2022-07-29T04:00:46;5.90;;;1.92;;
53062;SDS011;40529;52.172;10.548;2022-07-29T04:03:12;1.52;;;0.93;;
53062;SDS011;40529;52.172;10.548;2022-07-29T04:05:38;3.80;;;1.10;;
53062;SDS011;40529;52.172;10.548;2022-07-29T04:08:05;2.38;;;1.20;;
53062;SDS011;40529;52.172;10.548;2022-07-29T04:10:31;4.45;;;1.20;;
53062;SDS011;40529;52.172;10.548;2022-07-29T04:12:57;4.30;;;1.23;;
53062;SDS011;40529;52.172;10.548;2022-07-29T04:15:24;5.22;;;1.48;;
53062;SDS011;40529;52.172;10.548;2022-07-29T04:17:50;3.10;;;1.08;;
53062;SDS011;40529;52.172;10.548;2022-07-29T04:20:16;2.22;;;1.15;;
53062;SDS011;40529;52.172;10.548;2022-07-29T04:22:42;3.22;;;1.10;;
53062;SDS011;40529;52.172;10.548;2022-07-29T04:25:08;2.13;;;1.40;;
53062;SDS011;40529;52.172;10.548;2022-07-29T04:27:34;4.80;;;1.05;;
53062;SDS011;40529;52.172;10.548;2022-07-29T04:30:20;3.40;;;1.20;;
53062;SDS011;40529;52.172;10.548;2022-07-29T04:32:46;3.78;;;1.30;;
53062;SDS011;40529;52.172;10.548;2022-07-29T04:35:12;4.38;;;1.02;;
53062;SDS011;40529;52.172;10.548;2022-07-29T04:37:38;2.80;;;1.20;;
53062;SDS011;40529;52.172;10.548;2022-07-29T04:40:04;5.07;;;1.60;;
53062;SDS011;40529;52.172;10.548;2022-07-29T04:42:30;3.05;;;1.30;;
53062;SDS011;40529;52.172;10.548;2022-07-29T04:44:56;3.83;;;1.38;;
53062;SDS011;40529;52.172;10.548;2022-07-29T04:47:22;2.85;;;1.10;;
53062;SDS011;40529;52.172;10.548;2022-07-29T04:49:48;2.40;;;1.30;;
53062;SDS011;40529;52.172;10.548;2022-07-29T04:52:14;5.13;;;1.42;;
53062;SDS011;40529;52.172;10.548;2022-07-29T04:54:40;4.90;;;1.23;;
53062;SDS011;40529;52.172;10.548;2022-07-29T04:57:06;5.45;;;1.30;;
53062;SDS011;40529;52.172;10.548;2022-07-29T04:59:32;4.28;;;1.45;;
53062;SDS011;40529;52.172;10.548;2022-07-29T05:01:58;4.93;;;1.73;;
53062;SDS011;40529;52.172;10.548;2022-07-29T05:04:24;6.13;;;1.67;;
53062;SDS011;40529;52.172;10.548;2022-07-29T05:06:50;4.50;;;1.40;;
53062;SDS011;40529;52.172;10.548;2022-07-29T05:09:16;4.65;;;1.45;;
53062;SDS011;40529;52.172;10.548;2022-07-29T05:11:42;4.75;;;1.30;;
53062;SDS011;40529;52.172;10.548;2022-07-29T05:14:08;3.78;;;1.15;;
53062;SDS011;40529;52.172;10.548;2022-07-29T05:16:34;4.18;;;1.48;;
53062;SDS011;40529;52.172;10.548;2022-07-29T05:19:00;2.67;;;1.23;;
53062;SDS011;40529;52.172;10.548;2022-07-29T05:21:26;4.85;;;1.52;;
53062;SDS011;40529;52.172;10.548;2022-07-29T05:23:52;6.18;;;1.35;;
53062;SDS011;40529;52.172;10.548;2022-07-29T05:26:18;3.45;;;1.40;;
53062;SDS011;40529;52.172;10.548;2022-07-29T05:28:44;5.25;;;1.48;;
53062;SDS011;40529;52.172;10.548;2022-07-29T05:31:10;3.80;;;1.55;;
53062;SDS011;40529;52.172;10.548;2022-07-29T05:33:36;2.97;;;1.52;;
53062;SDS011;40529;52.172;10.548;2022-07-29T05:36:05;6.03;;;1.58;;
53062;SDS011;40529;52.172;10.548;2022-07-29T05:38:31;3.97;;;1.80;;
53062;SDS011;40529;52.172;10.548;2022-07-29T05:40:58;4.32;;;1.55;;
53062;SDS011;40529;52.172;10.548;2022-07-29T05:43:24;3.53;;;1.50;;
53062;SDS011;40529;52.172;10.548;2022-07-29T05:45:50;6.47;;;1.58;;
53062;SDS011;40529;52.172;10.548;2022-07-29T05:48:16;4.47;;;1.70;;
53062;SDS011;40529;52.172;10.548;2022-07-29T05:50:42;5.43;;;1.77;;
53062;SDS011;40529;52.172;10.548;2022-07-29T05:53:08;6.07;;;2.05;;
53062;SDS011;40529;52.172;10.548;2022-07-29T05:55:34;6.15;;;1.50;;
53062;SDS011;40529;52.172;10.548;2022-07-29T05:58:00;3.95;;;1.55;;
53062;SDS011;40529;52.172;10.548;2022-07-29T06:00:26;5.22;;;1.63;;
53062;SDS011;40529;52.172;10.548;2022-07-29T06:02:52;4.85;;;1.95;;
53062;SDS011;40529;52.172;10.548;2022-07-29T06:05:18;3.08;;;1.90;;
53062;SDS011;40529;52.172;10.548;2022-07-29T06:07:44;4.68;;;1.70;;
53062;SDS011;40529;52.172;10.548;2022-07-29T06:10:10;6.60;;;2.03;;
53062;SDS011;40529;52.172;10.548;2022-07-29T06:12:36;5.70;;;2.22;;
53062;SDS011;40529;52.172;10.548;2022-07-29T06:15:02;14.20;;;2.05;;
53062;SDS011;40529;52.172;10.548;2022-07-29T06:17:28;4.70;;;1.70;;
53062;SDS011;40529;52.172;10.548;2022-07-29T06:19:54;5.20;;;2.08;;
53062;SDS011;40529;52.172;10.548;2022-07-29T06:22:20;5.72;;;2.00;;
53062;SDS011;40529;52.172;10.548;2022-07-29T06:24:46;6.38;;;2.00;;
53062;SDS011;40529;52.172;10.548;2022-07-29T06:27:12;3.67;;;2.03;;
53062;SDS011;40529;52.172;10.548;2022-07-29T06:29:38;8.88;;;2.50;;
53062;SDS011;40529;52.172;10.548;2022-07-29T06:32:05;6.50;;;2.08;;
53062;SDS011;40529;52.172;10.548;2022-07-29T06:34:31;5.03;;;2.10;;
53062;SDS011;40529;52.172;10.548;2022-07-29T06:36:57;5.32;;;1.92;;
53062;SDS011;40529;52.172;10.548;2022-07-29T06:39:23;6.35;;;1.90;;
53062;SDS011;40529;52.172;10.548;2022-07-29T06:41:49;5.47;;;2.33;;
53062;SDS011;40529;52.172;10.548;2022-07-29T06:44:16;7.93;;;2.17;;
53062;SDS011;40529;52.172;10.548;2022-07-29T06:46:42;7.30;;;2.10;;
53062;SDS011;40529;52.172;10.548;2022-07-29T06:49:08;7.78;;;2.42;;
53062;SDS011;40529;52.172;10.548;2022-07-29T06:51:34;6.00;;;2.33;;
53062;SDS011;40529;52.172;10.548;2022-07-29T06:54:01;4.97;;;1.90;;
53062;SDS011;40529;52.172;10.548;2022-07-29T06:56:27;4.75;;;2.20;;
53062;SDS011;40529;52.172;10.548;2022-07-29T06:58:53;4.00;;;2.08;;
53062;SDS011;40529;52.172;10.548;2022-07-29T07:01:19;9.07;;;2.38;;
53062;SDS011;40529;52.172;10.548;2022-07-29T07:03:45;6.72;;;2.78;;
53062;SDS011;40529;52.172;10.548;2022-07-29T07:06:11;5.22;;;2.13;;
53062;SDS011;40529;52.172;10.548;2022-07-29T07:08:37;5.22;;;2.33;;
53062;SDS011;40529;52.172;10.548;2022-07-29T07:11:03;8.07;;;2.30;;
53062;SDS011;40529;52.172;10.548;2022-07-29T07:13:31;4.53;;;2.42;;
53062;SDS011;40529;52.172;10.548;2022-07-29T07:15:59;8.10;;;2.30;;
53062;SDS011;40529;52.172;10.548;2022-07-29T07:18:25;4.65;;;2.03;;
53062;SDS011;40529;52.172;10.548;2022-07-29T07:20:51;6.70;;;2.13;;
53062;SDS011;40529;52.172;10.548;2022-07-29T07:23:17;4.45;;;2.17;;
53062;SDS011;40529;52.172;10.548;2022-07-29T07:25:43;5.75;;;2.00;;
53062;SDS011;40529;52.172;10.548;2022-07-29T07:28:10;5.60;;;2.15;;
53062;SDS011;40529;52.172;10.548;2022-07-29T07:30:35;5.00;;;2.10;;
53062;SDS011;40529;52.172;10.548;2022-07-29T07:33:02;4.93;;;2.00;;
53062;SDS011;40529;52.172;10.548;2022-07-29T07:35:28;5.60;;;2.28;;
53062;SDS011;40529;52.172;10.548;2022-07-29T07:37:55;8.40;;;2.22;;
53062;SDS011;40529;52.172;10.548;2022-07-29T07:40:21;6.47;;;2.05;;
53062;SDS011;40529;52.172;10.548;2022-07-29T07:42:47;7.00;;;2.00;;
53062;SDS011;40529;52.172;10.548;2022-07-29T07:45:13;5.80;;;2.00;;
53062;SDS011;40529;52.172;10.548;2022-07-29T07:47:39;3.72;;;1.98;;
53062;SDS011;40529;52.172;10.548;2022-07-29T07:50:05;6.50;;;2.60;;
53062;SDS011;40529;52.172;10.548;2022-07-29T07:52:31;9.00;;;2.17;;
53062;SDS011;40529;52.172;10.548;2022-07-29T07:54:58;5.10;;;1.73;;
53062;SDS011;40529;52.172;10.548;2022-07-29T07:57:23;4.03;;;2.22;;
53062;SDS011;40529;52.172;10.548;2022-07-29T07:59:49;5.05;;;2.10;;
53062;SDS011;40529;52.172;10.548;2022-07-29T08:02:15;6.80;;;1.88;;
53062;SDS011;40529;52.172;10.548;2022-07-29T08:04:41;7.25;;;2.22;;
53062;SDS011;40529;52.172;10.548;2022-07-29T08:07:07;3.97;;;2.25;;
53062;SDS011;40529;52.172;10.548;2022-07-29T08:09:34;5.88;;;2.28;;
53062;SDS011;40529;52.172;10.548;2022-07-29T08:12:00;5.32;;;1.88;;
53062;SDS011;40529;52.172;10.548;2022-07-29T08:14:30;8.70;;;1.90;;
53062;SDS011;40529;52.172;10.548;2022-07-29T08:16:57;6.50;;;2.10;;
53062;SDS011;40529;52.172;10.548;2022-07-29T08:19:23;3.95;;;1.83;;
53062;SDS011;40529;52.172;10.548;2022-07-29T08:21:49;8.68;;;2.30;;
53062;SDS011;40529;52.172;10.548;2022-07-29T08:24:17;6.03;;;1.90;;
53062;SDS011;40529;52.172;10.548;2022-07-29T08:27:02;7.97;;;2.28;;
53062;SDS011;40529;52.172;10.548;2022-07-29T08:29:28;5.57;;;1.88;;
53062;SDS011;40529;52.172;10.548;2022-07-29T08:31:54;12.02;;;2.35;;
53062;SDS011;40529;52.172;10.548;2022-07-29T08:34:20;7.40;;;1.73;;
53062;SDS011;40529;52.172;10.548;2022-07-29T08:36:46;5.82;;;2.20;;
53062;SDS011;40529;52.172;10.548;2022-07-29T08:39:12;5.30;;;2.30;;
53062;SDS011;40529;52.172;10.548;2022-07-29T08:41:38;5.47;;;1.90;;
53062;SDS011;40529;52.172;10.548;2022-07-29T08:44:04;4.25;;;1.80;;
53062;SDS011;40529;52.172;10.548;2022-07-29T08:46:30;5.72;;;1.95;;
53062;SDS011;40529;52.172;10.548;2022-07-29T08:48:56;4.47;;;1.90;;
53062;SDS011;40529;52.172;10.548;2022-07-29T08:51:22;7.32;;;2.13;;
53062;SDS011;40529;52.172;10.548;2022-07-29T08:53:49;6.45;;;2.40;;
53062;SDS011;40529;52.172;10.548;2022-07-29T08:56:16;11.05;;;2.25;;
53062;SDS011;40529;52.172;10.548;2022-07-29T08:58:43;5.68;;;1.98;;
53062;SDS011;40529;52.172;10.548;2022-07-29T09:01:10;8.55;;;2.30;;
53062;SDS011;40529;52.172;10.548;2022-07-29T09:03:37;9.98;;;2.47;;
53062;SDS011;40529;52.172;10.548;2022-07-29T09:06:04;7.70;;;2.20;;
53062;SDS011;40529;52.172;10.548;2022-07-29T09:08:31;3.55;;;1.70;;
53062;SDS011;40529;52.172;10.548;2022-07-29T09:10:57;5.32;;;2.10;;
53062;SDS011;40529;52.172;10.548;2022-07-29T09:13:25;10.80;;;2.70;;
53062;SDS011;40529;52.172;10.548;2022-07-29T09:15:51;4.78;;;2.20;;
53062;SDS011;40529;52.172;10.548;2022-07-29T09:18:34;5.15;;;2.13;;
53062;SDS011;40529;52.172;10.548;2022-07-29T09:21:01;6.10;;;1.92;;
53062;SDS011;40529;52.172;10.548;2022-07-29T09:26:32;7.07;;;2.20;;
53062;SDS011;40529;52.172;10.548;2022-07-29T09:28:58;6.30;;;2.35;;
53062;SDS011;40529;52.172;10.548;2022-07-29T09:31:35;5.95;;;1.90;;
53062;SDS011;40529;52.172;10.548;2022-07-29T09:34:01;6.20;;;2.30;;
53062;SDS011;40529;52.172;10.548;2022-07-29T09:36:27;5.95;;;2.58;;
53062;SDS011;40529;52.172;10.548;2022-07-29T09:39:00;6.85;;;2.15;;
53062;SDS011;40529;52.172;10.548;2022-07-29T09:41:27;7.53;;;2.30;;
53062;SDS011;40529;52.172;10.548;2022-07-29T09:43:57;7.65;;;1.92;;
53062;SDS011;40529;52.172;10.548;2022-07-29T09:46:24;3.67;;;1.85;;
53062;SDS011;40529;52.172;10.548;2022-07-29T09:49:06;6.70;;;2.30;;
53062;SDS011;40529;52.172;10.548;2022-07-29T09:51:33;9.63;;;1.83;;
53062;SDS011;40529;52.172;10.548;2022-07-29T09:53:59;6.15;;;2.33;;
53062;SDS011;40529;52.172;10.548;2022-07-29T09:56:38;8.05;;;2.20;;
53062;SDS011;40529;52.172;10.548;2022-07-29T09:59:05;7.65;;;2.20;;
53062;SDS011;40529;52.172;10.548;2022-07-29T10:01:31;8.00;;;2.35;;
53062;SDS011;40529;52.172;10.548;2022-07-29T10:03:57;4.45;;;1.90;;
53062;SDS011;40529;52.172;10.548;2022-07-29T10:06:23;5.70;;;2.13;;
53062;SDS011;40529;52.172;10.548;2022-07-29T10:08:49;8.10;;;1.98;;
53062;SDS011;40529;52.172;10.548;2022-07-29T10:11:16;8.88;;;2.10;;
53062;SDS011;40529;52.172;10.548;2022-07-29T10:13:43;12.35;;;2.30;;
53062;SDS011;40529;52.172;10.548;2022-07-29T10:16:09;6.72;;;2.35;;
53062;SDS011;40529;52.172;10.548;2022-07-29T10:18:37;6.40;;;2.20;;
53062;SDS011;40529;52.172;10.548;2022-07-29T10:21:03;5.32;;;2.15;;
53062;SDS011;40529;52.172;10.548;2022-07-29T10:23:30;8.18;;;1.63;;
53062;SDS011;40529;52.172;10.548;2022-07-29T10:25:56;5.60;;;2.33;;
53062;SDS011;40529;52.172;10.548;2022-07-29T10:28:22;5.22;;;2.15;;
53062;SDS011;40529;52.172;10.548;2022-07-29T10:30:50;5.43;;;2.03;;
53062;SDS011;40529;52.172;10.548;2022-07-29T10:33:37;4.32;;;2.28;;
53062;SDS011;40529;52.172;10.548;2022-07-29T10:38:55;5.15;;;1.67;;
53062;SDS011;40529;52.172;10.548;2022-07-29T10:46:35;5.82;;;1.90;;
53062;SDS011;40529;52.172;10.548;2022-07-29T10:49:15;3.60;;;1.95;;
53062;SDS011;40529;52.172;10.548;2022-07-29T10:54:36;6.60;;;2.33;;
53062;SDS011;40529;52.172;10.548;2022-07-29T10:57:20;5.90;;;2.42;;
53062;SDS011;40529;52.172;10.548;2022-07-29T10:59:50;5.80;;;2.10;;
53062;SDS011;40529;52.172;10.548;2022-07-29T11:02:50;3.78;;;2.35;;
53062;SDS011;40529;52.172;10.548;2022-07-29T11:05:10;4.03;;;2.30;;
53062;SDS011;40529;52.172;10.548;2022-07-29T11:07:37;6.60;;;2.42;;
53062;SDS011;40529;52.172;10.548;2022-07-29T11:15:08;9.77;;;3.05;;
53062;SDS011;40529;52.172;10.548;2022-07-29T11:22:58;9.20;;;2.88;;
53062;SDS011;40529;52.172;10.548;2022-07-29T11:25:24;11.95;;;3.20;;
53062;SDS011;40529;52.172;10.548;2022-07-29T11:27:51;10.90;;;3.92;;
53062;SDS011;40529;52.172;10.548;2022-07-29T11:30:18;7.47;;;3.28;;
53062;SDS011;40529;52.172;10.548;2022-07-29T11:32:44;6.93;;;2.88;;
53062;SDS011;40529;52.172;10.548;2022-07-29T11:37:37;8.85;;;2.78;;
53062;SDS011;40529;52.172;10.548;2022-07-29T11:44:59;6.72;;;2.92;;
53062;SDS011;40529;52.172;10.548;2022-07-29T11:47:26;6.70;;;3.20;;
53062;SDS011;40529;52.172;10.548;2022-07-29T11:49:53;3.95;;;2.53;;
53062;SDS011;40529;52.172;10.548;2022-07-29T11:52:20;6.40;;;2.90;;
53062;SDS011;40529;52.172;10.548;2022-07-29T11:54:49;8.45;;;2.97;;
53062;SDS011;40529;52.172;10.548;2022-07-29T11:57:16;11.07;;;2.67;;
53062;SDS011;40529;52.172;10.548;2022-07-29T11:59:44;5.63;;;2.60;;
53062;SDS011;40529;52.172;10.548;2022-07-29T12:02:10;5.15;;;2.33;;
53062;SDS011;40529;52.172;10.548;2022-07-29T12:04:52;4.07;;;2.17;;
53062;SDS011;40529;52.172;10.548;2022-07-29T12:07:26;4.43;;;2.00;;
53062;SDS011;40529;52.172;10.548;2022-07-29T12:09:52;4.20;;;2.50;;
53062;SDS011;40529;52.172;10.548;2022-07-29T12:12:19;7.20;;;3.00;;
53062;SDS011;40529;52.172;10.548;2022-07-29T12:14:45;5.93;;;2.45;;
53062;SDS011;40529;52.172;10.548;2022-07-29T12:19:53;4.07;;;2.53;;
53062;SDS011;40529;52.172;10.548;2022-07-29T12:22:26;6.05;;;2.60;;
53062;SDS011;40529;52.172;10.548;2022-07-29T12:24:52;5.38;;;2.95;;
53062;SDS011;40529;52.172;10.548;2022-07-29T12:27:18;9.32;;;3.05;;
53062;SDS011;40529;52.172;10.548;2022-07-29T12:29:45;6.97;;;2.60;;
53062;SDS011;40529;52.172;10.548;2022-07-29T12:32:11;5.38;;;2.65;;
53062;SDS011;40529;52.172;10.548;2022-07-29T12:34:37;7.28;;;2.83;;
53062;SDS011;40529;52.172;10.548;2022-07-29T12:37:03;5.38;;;2.50;;
53062;SDS011;40529;52.172;10.548;2022-07-29T12:39:29;5.15;;;2.50;;
53062;SDS011;40529;52.172;10.548;2022-07-29T12:41:56;25.58;;;3.38;;
53062;SDS011;40529;52.172;10.548;2022-07-29T12:44:22;6.30;;;3.22;;
53062;SDS011;40529;52.172;10.548;2022-07-29T12:47:01;8.48;;;2.60;;
53062;SDS011;40529;52.172;10.548;2022-07-29T12:49:27;5.57;;;2.53;;
53062;SDS011;40529;52.172;10.548;2022-07-29T12:51:53;6.93;;;2.70;;
53062;SDS011;40529;52.172;10.548;2022-07-29T12:54:19;6.20;;;2.75;;
53062;SDS011;40529;52.172;10.548;2022-07-29T12:56:45;5.65;;;2.83;;
53062;SDS011;40529;52.172;10.548;2022-07-29T12:59:15;4.80;;;2.90;;
53062;SDS011;40529;52.172;10.548;2022-07-29T13:01:42;4.75;;;2.92;;
53062;SDS011;40529;52.172;10.548;2022-07-29T13:04:08;11.07;;;3.78;;
53062;SDS011;40529;52.172;10.548;2022-07-29T13:06:36;9.63;;;3.10;;
53062;SDS011;40529;52.172;10.548;2022-07-29T13:09:03;3.72;;;2.42;;
53062;SDS011;40529;52.172;10.548;2022-07-29T13:11:30;6.93;;;2.83;;
53062;SDS011;40529;52.172;10.548;2022-07-29T13:13:57;8.15;;;3.00;;
53062;SDS011;40529;52.172;10.548;2022-07-29T13:16:23;7.32;;;2.90;;
53062;SDS011;40529;52.172;10.548;2022-07-29T13:18:54;6.18;;;2.92;;
53062;SDS011;40529;52.172;10.548;2022-07-29T13:21:28;5.43;;;2.92;;
53062;SDS011;40529;52.172;10.548;2022-07-29T13:23:54;7.63;;;2.83;;
53062;SDS011;40529;52.172;10.548;2022-07-29T13:26:20;3.88;;;2.65;;
53062;SDS011;40529;52.172;10.548;2022-07-29T13:28:46;6.50;;;2.85;;
53062;SDS011;40529;52.172;10.548;2022-07-29T13:31:12;8.50;;;3.10;;
53062;SDS011;40529;52.172;10.548;2022-07-29T13:33:38;5.00;;;2.97;;
53062;SDS011;40529;52.172;10.548;2022-07-29T13:36:04;5.65;;;3.38;;
53062;SDS011;40529;52.172;10.548;2022-07-29T13:38:30;6.78;;;3.13;;
53062;SDS011;40529;52.172;10.548;2022-07-29T13:40:56;8.70;;;3.63;;
53062;SDS011;40529;52.172;10.548;2022-07-29T13:43:22;5.25;;;2.80;;
53062;SDS011;40529;52.172;10.548;2022-07-29T13:45:48;4.07;;;2.55;;
53062;SDS011;40529;52.172;10.548;2022-07-29T13:48:14;5.88;;;2.85;;
53062;SDS011;40529;52.172;10.548;2022-07-29T13:50:40;5.68;;;2.95;;
53062;SDS011;40529;52.172;10.548;2022-07-29T13:53:06;8.77;;;2.95;;
53062;SDS011;40529;52.172;10.548;2022-07-29T13:55:32;6.65;;;2.95;;
53062;SDS011;40529;52.172;10.548;2022-07-29T13:57:59;6.30;;;2.67;;
53062;SDS011;40529;52.172;10.548;2022-07-29T14:00:25;5.47;;;2.75;;
53062;SDS011;40529;52.172;10.548;2022-07-29T14:02:51;7.15;;;2.92;;
53062;SDS011;40529;52.172;10.548;2022-07-29T14:05:17;7.90;;;2.88;;
53062;SDS011;40529;52.172;10.548;2022-07-29T14:07:43;6.60;;;3.05;;
53062;SDS011;40529;52.172;10.548;2022-07-29T14:10:09;4.97;;;2.65;;
53062;SDS011;40529;52.172;10.548;2022-07-29T14:12:35;7.20;;;3.08;;
53062;SDS011;40529;52.172;10.548;2022-07-29T14:15:02;5.20;;;2.60;;
53062;SDS011;40529;52.172;10.548;2022-07-29T14:17:28;5.93;;;2.88;;
53062;SDS011;40529;52.172;10.548;2022-07-29T14:19:54;8.63;;;2.83;;
53062;SDS011;40529;52.172;10.548;2022-07-29T14:22:20;8.65;;;2.90;;
53062;SDS011;40529;52.172;10.548;2022-07-29T14:24:46;6.63;;;2.67;;
53062;SDS011;40529;52.172;10.548;2022-07-29T14:27:12;6.88;;;3.00;;
53062;SDS011;40529;52.172;10.548;2022-07-29T14:29:38;5.80;;;3.03;;
53062;SDS011;40529;52.172;10.548;2022-07-29T14:32:04;4.20;;;2.42;;
53062;SDS011;40529;52.172;10.548;2022-07-29T14:34:31;7.20;;;2.67;;
53062;SDS011;40529;52.172;10.548;2022-07-29T14:36:57;6.22;;;2.50;;
53062;SDS011;40529;52.172;10.548;2022-07-29T14:39:23;9.02;;;3.03;;
53062;SDS011;40529;52.172;10.548;2022-07-29T14:41:49;5.13;;;2.63;;
53062;SDS011;40529;52.172;10.548;2022-07-29T14:44:16;3.20;;;2.50;;
53062;SDS011;40529;52.172;10.548;2022-07-29T14:46:42;6.15;;;2.70;;
53062;SDS011;40529;52.172;10.548;2022-07-29T14:49:08;9.23;;;2.90;;
53062;SDS011;40529;52.172;10.548;2022-07-29T14:51:34;6.05;;;2.95;;
53062;SDS011;40529;52.172;10.548;2022-07-29T14:54:01;7.07;;;2.90;;
53062;SDS011;40529;52.172;10.548;2022-07-29T14:56:27;7.13;;;2.55;;
53062;SDS011;40529;52.172;10.548;2022-07-29T14:58:55;6.18;;;2.60;;
53062;SDS011;40529;52.172;10.548;2022-07-29T15:01:21;5.82;;;2.40;;
53062;SDS011;40529;52.172;10.548;2022-07-29T15:03:47;6.72;;;2.72;;
53062;SDS011;40529;52.172;10.548;2022-07-29T15:06:13;7.30;;;2.50;;
53062;SDS011;40529;52.172;10.548;2022-07-29T15:08:38;5.15;;;2.42;;
53062;SDS011;40529;52.172;10.548;2022-07-29T15:11:05;4.13;;;2.15;;
53062;SDS011;40529;52.172;10.548;2022-07-29T15:13:30;3.47;;;2.25;;
53062;SDS011;40529;52.172;10.548;2022-07-29T15:15:56;4.60;;;2.30;;
53062;SDS011;40529;52.172;10.548;2022-07-29T15:18:22;6.50;;;2.60;;